sensor_id;sensor_type;location;lat;lon;timestamp;temperature;humidity
67196;DHT22;54122;53.538;49.366;2023-04-24T00:00:23;9.50;53.10
67196;DHT22;54122;53.538;49.366;2023-04-24T00:02:49;9.50;53.40
67196;DHT22;54122;53.538;49.366;2023-04-24T00:05:16;9.50;53.40
67196;DHT22;54122;53.538;49.366;2023-04-24T00:07:44;9.60;53.40
67196;DHT22;54122;53.538;49.366;2023-04-24T00:10:11;9.60;53.30
67196;DHT22;54122;53.538;49.366;2023-04-24T00:12:38;9.60;53.30
67196;DHT22;54122;53.538;49.366;2023-04-24T00:15:05;9.50;53.40
67196;DHT22;54122;53.538;49.366;2023-04-24T00:17:31;9.50;53.60
67196;DHT22;54122;53.538;49.366;2023-04-24T00:19:57;9.50;53.70
67196;DHT22;54122;53.538;49.366;2023-04-24T00:22:25;9.60;53.70
67196;DHT22;54122;53.538;49.366;2023-04-24T00:24:51;9.60;53.60
67196;DHT22;54122;53.538;49.366;2023-04-24T00:27:17;9.60;53.60
67196;DHT22;54122;53.538;49.366;2023-04-24T00:29:43;9.60;53.70
67196;DHT22;54122;53.538;49.366;2023-04-24T00:32:10;9.60;53.50
67196;DHT22;54122;53.538;49.366;2023-04-24T00:34:36;9.60;53.70
67196;DHT22;54122;53.538;49.366;2023-04-24T00:37:02;9.50;54.00
67196;DHT22;54122;53.538;49.366;2023-04-24T00:39:29;9.40;54.20
67196;DHT22;54122;53.538;49.366;2023-04-24T00:41:55;9.30;54.40
67196;DHT22;54122;53.538;49.366;2023-04-24T00:44:22;9.20;54.60
67196;DHT22;54122;53.538;49.366;2023-04-24T00:46:49;9.10;55.00
67196;DHT22;54122;53.538;49.366;2023-04-24T00:49:22;8.90;55.30
67196;DHT22;54122;53.538;49.366;2023-04-24T00:51:49;8.80;55.70
67196;DHT22;54122;53.538;49.366;2023-04-24T00:54:17;8.60;57.10
67196;DHT22;54122;53.538;49.366;2023-04-24T00:56:44;8.50;56.50
67196;DHT22;54122;53.538;49.366;2023-04-24T00:59:16;8.40;57.00
67196;DHT22;54122;53.538;49.366;2023-04-24T01:01:44;8.30;57.50
67196;DHT22;54122;53.538;49.366;2023-04-24T01:04:11;8.20;57.60
67196;DHT22;54122;53.538;49.366;2023-04-24T01:06:43;8.10;58.00
67196;DHT22;54122;53.538;49.366;2023-04-24T01:09:12;8.00;58.30
67196;DHT22;54122;53.538;49.366;2023-04-24T01:11:38;7.90;58.60
67196;DHT22;54122;53.538;49.366;2023-04-24T01:14:07;7.80;58.80
67196;DHT22;54122;53.538;49.366;2023-04-24T01:16:33;7.70;59.00
67196;DHT22;54122;53.538;49.366;2023-04-24T01:19:00;7.70;59.30
67196;DHT22;54122;53.538;49.366;2023-04-24T01:21:27;7.60;59.50
67196;DHT22;54122;53.538;49.366;2023-04-24T01:23:55;7.60;59.80
67196;DHT22;54122;53.538;49.366;2023-04-24T01:26:22;7.50;60.00
67196;DHT22;54122;53.538;49.366;2023-04-24T01:28:49;7.50;60.10
67196;DHT22;54122;53.538;49.366;2023-04-24T01:31:15;7.50;60.30
67196;DHT22;54122;53.538;49.366;2023-04-24T01:33:42;7.50;60.50
67196;DHT22;54122;53.538;49.366;2023-04-24T01:36:10;7.50;60.60
67196;DHT22;54122;53.538;49.366;2023-04-24T01:38:37;7.40;60.60
67196;DHT22;54122;53.538;49.366;2023-04-24T01:41:03;7.50;60.70
67196;DHT22;54122;53.538;49.366;2023-04-24T01:43:30;7.50;60.80
67196;DHT22;54122;53.538;49.366;2023-04-24T01:45:56;7.60;60.80
67196;DHT22;54122;53.538;49.366;2023-04-24T01:48:22;7.60;60.80
67196;DHT22;54122;53.538;49.366;2023-04-24T01:50:48;7.50;60.90
67196;DHT22;54122;53.538;49.366;2023-04-24T01:53:15;7.60;61.00
67196;DHT22;54122;53.538;49.366;2023-04-24T01:55:41;7.60;61.00
67196;DHT22;54122;53.538;49.366;2023-04-24T01:58:07;7.60;61.10
67196;DHT22;54122;53.538;49.366;2023-04-24T02:00:33;7.90;61.30
67196;DHT22;54122;53.538;49.366;2023-04-24T02:03:00;8.40;61.50
67196;DHT22;54122;53.538;49.366;2023-04-24T02:05:28;9.20;58.50
67196;DHT22;54122;53.538;49.366;2023-04-24T02:07:54;10.20;56.00
67196;DHT22;54122;53.538;49.366;2023-04-24T02:10:20;11.10;53.60
67196;DHT22;54122;53.538;49.366;2023-04-24T02:12:46;11.90;51.10
67196;DHT22;54122;53.538;49.366;2023-04-24T02:15:13;12.60;49.10
67196;DHT22;54122;53.538;49.366;2023-04-24T02:17:39;13.20;47.60
67196;DHT22;54122;53.538;49.366;2023-04-24T02:20:06;13.90;46.00
67196;DHT22;54122;53.538;49.366;2023-04-24T02:22:32;14.60;44.40
67196;DHT22;54122;53.538;49.366;2023-04-24T02:24:59;15.20;42.80
67196;DHT22;54122;53.538;49.366;2023-04-24T02:27:25;15.80;41.40
67196;DHT22;54122;53.538;49.366;2023-04-24T02:29:51;16.20;40.00
67196;DHT22;54122;53.538;49.366;2023-04-24T02:32:17;16.60;40.10
67196;DHT22;54122;53.538;49.366;2023-04-24T02:34:43;17.00;37.80
67196;DHT22;54122;53.538;49.366;2023-04-24T02:37:10;17.40;36.80
67196;DHT22;54122;53.538;49.366;2023-04-24T02:39:36;17.70;35.70
67196;DHT22;54122;53.538;49.366;2023-04-24T02:42:02;17.90;35.20
67196;DHT22;54122;53.538;49.366;2023-04-24T02:44:28;18.30;34.50
67196;DHT22;54122;53.538;49.366;2023-04-24T02:46:54;18.70;33.90
67196;DHT22;54122;53.538;49.366;2023-04-24T02:49:20;19.10;32.80
67196;DHT22;54122;53.538;49.366;2023-04-24T02:51:47;19.40;32.00
67196;DHT22;54122;53.538;49.366;2023-04-24T02:54:13;19.70;31.20
67196;DHT22;54122;53.538;49.366;2023-04-24T02:56:39;20.00;30.50
67196;DHT22;54122;53.538;49.366;2023-04-24T02:59:05;20.30;30.10
67196;DHT22;54122;53.538;49.366;2023-04-24T03:01:31;20.70;29.60
67196;DHT22;54122;53.538;49.366;2023-04-24T03:03:57;20.90;28.80
67196;DHT22;54122;53.538;49.366;2023-04-24T03:06:24;21.00;28.80
67196;DHT22;54122;53.538;49.366;2023-04-24T03:08:50;21.30;28.50
67196;DHT22;54122;53.538;49.366;2023-04-24T03:11:18;21.60;28.00
67196;DHT22;54122;53.538;49.366;2023-04-24T03:13:44;21.80;27.40
67196;DHT22;54122;53.538;49.366;2023-04-24T03:16:10;21.80;27.20
67196;DHT22;54122;53.538;49.366;2023-04-24T03:18:36;22.10;27.00
67196;DHT22;54122;53.538;49.366;2023-04-24T03:21:03;22.20;26.70
67196;DHT22;54122;53.538;49.366;2023-04-24T03:23:29;22.50;26.50
67196;DHT22;54122;53.538;49.366;2023-04-24T03:25:55;23.00;26.00
67196;DHT22;54122;53.538;49.366;2023-04-24T03:28:21;23.20;25.60
67196;DHT22;54122;53.538;49.366;2023-04-24T03:30:48;23.30;25.30
67196;DHT22;54122;53.538;49.366;2023-04-24T03:33:14;23.50;25.10
67196;DHT22;54122;53.538;49.366;2023-04-24T03:35:40;23.70;24.80
67196;DHT22;54122;53.538;49.366;2023-04-24T03:38:07;23.90;24.50
67196;DHT22;54122;53.538;49.366;2023-04-24T03:40:33;23.70;24.40
67196;DHT22;54122;53.538;49.366;2023-04-24T03:42:59;23.80;25.50
67196;DHT22;54122;53.538;49.366;2023-04-24T03:45:25;24.00;24.30
67196;DHT22;54122;53.538;49.366;2023-04-24T03:47:51;24.40;24.10
67196;DHT22;54122;53.538;49.366;2023-04-24T03:50:18;24.70;23.80
67196;DHT22;54122;53.538;49.366;2023-04-24T03:52:44;24.90;23.10
67196;DHT22;54122;53.538;49.366;2023-04-24T03:55:10;24.90;23.10
67196;DHT22;54122;53.538;49.366;2023-04-24T03:57:40;24.90;23.00
67196;DHT22;54122;53.538;49.366;2023-04-24T04:00:06;24.90;23.20
67196;DHT22;54122;53.538;49.366;2023-04-24T04:02:33;25.00;22.70
67196;DHT22;54122;53.538;49.366;2023-04-24T04:04:59;24.90;22.70
67196;DHT22;54122;53.538;49.366;2023-04-24T04:07:25;24.90;22.70
67196;DHT22;54122;53.538;49.366;2023-04-24T04:09:54;25.00;22.70
67196;DHT22;54122;53.538;49.366;2023-04-24T04:12:22;25.50;22.30
67196;DHT22;54122;53.538;49.366;2023-04-24T04:14:48;25.80;22.00
67196;DHT22;54122;53.538;49.366;2023-04-24T04:17:14;26.10;21.80
67196;DHT22;54122;53.538;49.366;2023-04-24T04:19:40;26.00;21.80
67196;DHT22;54122;53.538;49.366;2023-04-24T04:22:07;26.60;21.80
67196;DHT22;54122;53.538;49.366;2023-04-24T04:24:34;27.20;21.10
67196;DHT22;54122;53.538;49.366;2023-04-24T04:27:18;27.40;20.70
67196;DHT22;54122;53.538;49.366;2023-04-24T04:29:45;27.40;20.70
67196;DHT22;54122;53.538;49.366;2023-04-24T04:32:11;27.80;20.50
67196;DHT22;54122;53.538;49.366;2023-04-24T04:34:37;28.30;20.30
67196;DHT22;54122;53.538;49.366;2023-04-24T04:39:51;29.00;19.30
67196;DHT22;54122;53.538;49.366;2023-04-24T04:42:19;28.60;19.20
67196;DHT22;54122;53.538;49.366;2023-04-24T04:44:45;28.10;19.30
67196;DHT22;54122;53.538;49.366;2023-04-24T04:47:30;27.90;19.60
67196;DHT22;54122;53.538;49.366;2023-04-24T04:49:58;27.90;20.00
67196;DHT22;54122;53.538;49.366;2023-04-24T04:52:24;28.40;19.40
67196;DHT22;54122;53.538;49.366;2023-04-24T04:54:51;28.40;19.00
67196;DHT22;54122;53.538;49.366;2023-04-24T04:57:17;28.30;19.20
67196;DHT22;54122;53.538;49.366;2023-04-24T04:59:44;28.80;18.90
67196;DHT22;54122;53.538;49.366;2023-04-24T05:02:10;29.10;18.90
67196;DHT22;54122;53.538;49.366;2023-04-24T05:04:41;29.50;18.60
67196;DHT22;54122;53.538;49.366;2023-04-24T05:07:07;29.80;18.20
67196;DHT22;54122;53.538;49.366;2023-04-24T05:09:33;29.90;18.10
67196;DHT22;54122;53.538;49.366;2023-04-24T05:12:18;30.00;18.00
67196;DHT22;54122;53.538;49.366;2023-04-24T05:17:47;30.40;17.30
67196;DHT22;54122;53.538;49.366;2023-04-24T05:20:32;30.40;17.40
67196;DHT22;54122;53.538;49.366;2023-04-24T05:22:58;30.20;17.50
67196;DHT22;54122;53.538;49.366;2023-04-24T05:28:09;30.30;17.30
67196;DHT22;54122;53.538;49.366;2023-04-24T05:30:35;30.20;17.10
67196;DHT22;54122;53.538;49.366;2023-04-24T05:33:02;30.20;17.20
67196;DHT22;54122;53.538;49.366;2023-04-24T05:35:29;30.40;17.00
67196;DHT22;54122;53.538;49.366;2023-04-24T05:37:55;30.40;17.10
67196;DHT22;54122;53.538;49.366;2023-04-24T05:40:21;30.60;17.10
67196;DHT22;54122;53.538;49.366;2023-04-24T05:42:47;30.90;17.00
67196;DHT22;54122;53.538;49.366;2023-04-24T05:45:14;31.40;16.90
67196;DHT22;54122;53.538;49.366;2023-04-24T05:47:43;31.60;16.90
67196;DHT22;54122;53.538;49.366;2023-04-24T05:50:12;31.60;16.40
67196;DHT22;54122;53.538;49.366;2023-04-24T05:52:38;31.40;16.60
67196;DHT22;54122;53.538;49.366;2023-04-24T05:55:04;31.00;16.70
67196;DHT22;54122;53.538;49.366;2023-04-24T05:57:49;31.00;17.20
67196;DHT22;54122;53.538;49.366;2023-04-24T06:00:15;31.40;17.10
67196;DHT22;54122;53.538;49.366;2023-04-24T06:02:41;32.00;16.70
67196;DHT22;54122;53.538;49.366;2023-04-24T06:05:08;31.90;16.50
67196;DHT22;54122;53.538;49.366;2023-04-24T06:07:34;31.80;16.30
67196;DHT22;54122;53.538;49.366;2023-04-24T06:10:22;31.70;16.40
67196;DHT22;54122;53.538;49.366;2023-04-24T06:13:07;31.60;17.30
67196;DHT22;54122;53.538;49.366;2023-04-24T06:15:33;31.20;16.90
67196;DHT22;54122;53.538;49.366;2023-04-24T06:17:59;31.10;16.70
67196;DHT22;54122;53.538;49.366;2023-04-24T06:20:27;30.80;16.90
67196;DHT22;54122;53.538;49.366;2023-04-24T06:22:53;30.90;17.10
67196;DHT22;54122;53.538;49.366;2023-04-24T06:25:20;30.90;16.80
67196;DHT22;54122;53.538;49.366;2023-04-24T06:27:46;30.90;17.10
67196;DHT22;54122;53.538;49.366;2023-04-24T06:30:12;31.20;16.80
67196;DHT22;54122;53.538;49.366;2023-04-24T06:32:39;31.30;16.70
67196;DHT22;54122;53.538;49.366;2023-04-24T06:35:06;31.40;16.70
67196;DHT22;54122;53.538;49.366;2023-04-24T06:37:33;31.20;16.70
67196;DHT22;54122;53.538;49.366;2023-04-24T06:40:00;31.20;16.80
67196;DHT22;54122;53.538;49.366;2023-04-24T06:42:26;30.70;16.90
67196;DHT22;54122;53.538;49.366;2023-04-24T06:44:52;30.20;18.40
67196;DHT22;54122;53.538;49.366;2023-04-24T06:47:18;30.20;17.60
67196;DHT22;54122;53.538;49.366;2023-04-24T06:49:44;30.00;17.80
67196;DHT22;54122;53.538;49.366;2023-04-24T06:52:10;30.10;17.80
67196;DHT22;54122;53.538;49.366;2023-04-24T06:54:37;29.90;17.80
67196;DHT22;54122;53.538;49.366;2023-04-24T06:57:03;29.90;17.80
67196;DHT22;54122;53.538;49.366;2023-04-24T06:59:30;29.70;17.90
67196;DHT22;54122;53.538;49.366;2023-04-24T07:01:56;29.60;17.80
67196;DHT22;54122;53.538;49.366;2023-04-24T07:04:22;29.40;18.00
67196;DHT22;54122;53.538;49.366;2023-04-24T07:06:50;29.60;18.20
67196;DHT22;54122;53.538;49.366;2023-04-24T07:09:17;29.90;17.20
67196;DHT22;54122;53.538;49.366;2023-04-24T07:11:45;29.70;17.30
67196;DHT22;54122;53.538;49.366;2023-04-24T07:14:11;29.50;17.40
67196;DHT22;54122;53.538;49.366;2023-04-24T07:16:38;29.70;17.20
67196;DHT22;54122;53.538;49.366;2023-04-24T07:19:22;29.80;17.20
67196;DHT22;54122;53.538;49.366;2023-04-24T07:21:49;30.20;16.90
67196;DHT22;54122;53.538;49.366;2023-04-24T07:24:33;30.40;16.00
67196;DHT22;54122;53.538;49.366;2023-04-24T07:26:59;30.30;16.30
67196;DHT22;54122;53.538;49.366;2023-04-24T07:29:27;30.40;16.10
67196;DHT22;54122;53.538;49.366;2023-04-24T07:32:11;30.30;16.40
67196;DHT22;54122;53.538;49.366;2023-04-24T07:34:38;30.00;16.30
67196;DHT22;54122;53.538;49.366;2023-04-24T07:37:04;29.50;16.60
67196;DHT22;54122;53.538;49.366;2023-04-24T07:39:30;29.10;16.70
67196;DHT22;54122;53.538;49.366;2023-04-24T07:44:41;29.00;17.00
67196;DHT22;54122;53.538;49.366;2023-04-24T07:47:08;29.10;16.70
67196;DHT22;54122;53.538;49.366;2023-04-24T07:49:34;29.10;16.80
67196;DHT22;54122;53.538;49.366;2023-04-24T07:52:01;29.10;16.60
67196;DHT22;54122;53.538;49.366;2023-04-24T07:54:28;29.20;16.80
67196;DHT22;54122;53.538;49.366;2023-04-24T07:56:54;29.40;16.50
67196;DHT22;54122;53.538;49.366;2023-04-24T08:02:06;29.10;16.60
67196;DHT22;54122;53.538;49.366;2023-04-24T08:04:32;29.20;16.20
67196;DHT22;54122;53.538;49.366;2023-04-24T08:06:59;29.30;16.20
67196;DHT22;54122;53.538;49.366;2023-04-24T08:09:27;29.50;16.20
67196;DHT22;54122;53.538;49.366;2023-04-24T08:11:53;29.80;15.80
67196;DHT22;54122;53.538;49.366;2023-04-24T08:14:19;29.90;15.80
67196;DHT22;54122;53.538;49.366;2023-04-24T08:16:46;29.80;15.50
67196;DHT22;54122;53.538;49.366;2023-04-24T08:19:12;29.60;15.20
67196;DHT22;54122;53.538;49.366;2023-04-24T08:21:38;29.70;15.20
67196;DHT22;54122;53.538;49.366;2023-04-24T08:24:23;29.90;14.40
67196;DHT22;54122;53.538;49.366;2023-04-24T08:26:49;29.80;14.40
67196;DHT22;54122;53.538;49.366;2023-04-24T08:29:18;30.00;14.50
67196;DHT22;54122;53.538;49.366;2023-04-24T08:32:03;30.10;14.60
67196;DHT22;54122;53.538;49.366;2023-04-24T08:34:29;30.40;14.30
67196;DHT22;54122;53.538;49.366;2023-04-24T08:36:55;30.20;14.10
67196;DHT22;54122;53.538;49.366;2023-04-24T08:39:21;29.80;14.00
67196;DHT22;54122;53.538;49.366;2023-04-24T08:41:48;29.60;14.30
67196;DHT22;54122;53.538;49.366;2023-04-24T08:44:14;29.70;14.30
67196;DHT22;54122;53.538;49.366;2023-04-24T08:46:43;29.70;14.80
67196;DHT22;54122;53.538;49.366;2023-04-24T08:49:14;29.90;14.50
67196;DHT22;54122;53.538;49.366;2023-04-24T08:51:42;30.10;14.60
67196;DHT22;54122;53.538;49.366;2023-04-24T08:54:08;29.90;14.60
67196;DHT22;54122;53.538;49.366;2023-04-24T08:56:36;30.10;14.60
67196;DHT22;54122;53.538;49.366;2023-04-24T08:59:06;30.10;14.20
67196;DHT22;54122;53.538;49.366;2023-04-24T09:01:33;29.80;14.00
67196;DHT22;54122;53.538;49.366;2023-04-24T09:09:55;29.00;14.00
67196;DHT22;54122;53.538;49.366;2023-04-24T09:12:22;28.90;14.40
67196;DHT22;54122;53.538;49.366;2023-04-24T09:14:48;29.00;14.90
67196;DHT22;54122;53.538;49.366;2023-04-24T09:17:15;29.10;14.60
67196;DHT22;54122;53.538;49.366;2023-04-24T09:19:42;28.80;15.00
67196;DHT22;54122;53.538;49.366;2023-04-24T09:22:09;28.50;15.50
67196;DHT22;54122;53.538;49.366;2023-04-24T09:25:06;28.00;15.80
67196;DHT22;54122;53.538;49.366;2023-04-24T09:27:33;27.40;16.40
67196;DHT22;54122;53.538;49.366;2023-04-24T09:30:00;27.00;17.10
67196;DHT22;54122;53.538;49.366;2023-04-24T09:32:27;26.70;17.10
67196;DHT22;54122;53.538;49.366;2023-04-24T09:35:12;26.30;17.40
67196;DHT22;54122;53.538;49.366;2023-04-24T09:37:57;25.90;17.90
67196;DHT22;54122;53.538;49.366;2023-04-24T09:41:01;25.40;18.10
67196;DHT22;54122;53.538;49.366;2023-04-24T09:46:33;24.80;18.90
67196;DHT22;54122;53.538;49.366;2023-04-24T09:52:12;24.70;19.20
67196;DHT22;54122;53.538;49.366;2023-04-24T09:54:39;24.30;19.30
67196;DHT22;54122;53.538;49.366;2023-04-24T09:57:08;24.00;19.80
67196;DHT22;54122;53.538;49.366;2023-04-24T10:02:20;23.70;20.30
67196;DHT22;54122;53.538;49.366;2023-04-24T10:07:49;23.60;20.60
67196;DHT22;54122;53.538;49.366;2023-04-24T10:10:17;23.40;20.70
67196;DHT22;54122;53.538;49.366;2023-04-24T10:13:02;23.40;21.00
67196;DHT22;54122;53.538;49.366;2023-04-24T10:18:15;23.50;20.90
67196;DHT22;54122;53.538;49.366;2023-04-24T10:20:42;23.60;20.50
67196;DHT22;54122;53.538;49.366;2023-04-24T10:23:27;23.50;20.50
67196;DHT22;54122;53.538;49.366;2023-04-24T10:28:47;23.50;20.90
67196;DHT22;54122;53.538;49.366;2023-04-24T10:31:14;23.60;21.30
67196;DHT22;54122;53.538;49.366;2023-04-24T10:33:44;23.60;21.10
67196;DHT22;54122;53.538;49.366;2023-04-24T10:36:13;23.50;21.00
67196;DHT22;54122;53.538;49.366;2023-04-24T10:38:42;23.40;21.10
67196;DHT22;54122;53.538;49.366;2023-04-24T10:44:14;23.10;21.40
67196;DHT22;54122;53.538;49.366;2023-04-24T10:46:53;23.20;21.50
67196;DHT22;54122;53.538;49.366;2023-04-24T10:49:29;23.30;21.40
67196;DHT22;54122;53.538;49.366;2023-04-24T10:52:01;23.30;21.10
67196;DHT22;54122;53.538;49.366;2023-04-24T10:54:47;23.20;21.10
67196;DHT22;54122;53.538;49.366;2023-04-24T10:57:32;23.10;21.30
67196;DHT22;54122;53.538;49.366;2023-04-24T11:00:20;23.00;21.50
67196;DHT22;54122;53.538;49.366;2023-04-24T11:02:48;23.10;21.20
67196;DHT22;54122;53.538;49.366;2023-04-24T11:05:16;22.90;21.10
67196;DHT22;54122;53.538;49.366;2023-04-24T11:16:45;22.90;21.50
67196;DHT22;54122;53.538;49.366;2023-04-24T11:27:42;23.00;21.60
67196;DHT22;54122;53.538;49.366;2023-04-24T11:30:10;23.10;21.30
67196;DHT22;54122;53.538;49.366;2023-04-24T11:32:38;23.00;21.20
67196;DHT22;54122;53.538;49.366;2023-04-24T11:35:21;23.00;21.70
67196;DHT22;54122;53.538;49.366;2023-04-24T11:37:52;23.00;21.30
67196;DHT22;54122;53.538;49.366;2023-04-24T11:40:21;23.10;21.60
67196;DHT22;54122;53.538;49.366;2023-04-24T11:42:50;23.10;21.50
67196;DHT22;54122;53.538;49.366;2023-04-24T11:45:35;23.20;21.30
67196;DHT22;54122;53.538;49.366;2023-04-24T11:48:03;23.30;21.50
67196;DHT22;54122;53.538;49.366;2023-04-24T11:50:29;23.20;21.40
67196;DHT22;54122;53.538;49.366;2023-04-24T11:52:56;23.20;21.20
67196;DHT22;54122;53.538;49.366;2023-04-24T11:55:41;23.20;21.30
67196;DHT22;54122;53.538;49.366;2023-04-24T12:00:57;23.00;21.40
67196;DHT22;54122;53.538;49.366;2023-04-24T12:03:23;23.00;21.50
67196;DHT22;54122;53.538;49.366;2023-04-24T12:05:50;22.90;21.20
67196;DHT22;54122;53.538;49.366;2023-04-24T12:08:45;22.80;21.30
67196;DHT22;54122;53.538;49.366;2023-04-24T12:11:15;22.70;21.50
67196;DHT22;54122;53.538;49.366;2023-04-24T12:13:42;22.60;21.70
67196;DHT22;54122;53.538;49.366;2023-04-24T12:16:08;22.60;21.90
67196;DHT22;54122;53.538;49.366;2023-04-24T12:18:34;22.70;21.90
67196;DHT22;54122;53.538;49.366;2023-04-24T12:21:20;22.70;22.10
67196;DHT22;54122;53.538;49.366;2023-04-24T12:23:48;22.70;21.90
67196;DHT22;54122;53.538;49.366;2023-04-24T12:26:32;22.80;21.90
67196;DHT22;54122;53.538;49.366;2023-04-24T12:29:01;22.80;22.00
67196;DHT22;54122;53.538;49.366;2023-04-24T12:32:15;22.90;21.70
67196;DHT22;54122;53.538;49.366;2023-04-24T12:34:43;23.00;21.70
67196;DHT22;54122;53.538;49.366;2023-04-24T12:37:13;22.90;21.80
67196;DHT22;54122;53.538;49.366;2023-04-24T12:40:04;22.90;21.70
67196;DHT22;54122;53.538;49.366;2023-04-24T12:42:34;22.80;21.50
67196;DHT22;54122;53.538;49.366;2023-04-24T12:45:05;22.80;21.90
67196;DHT22;54122;53.538;49.366;2023-04-24T12:47:33;22.80;21.70
67196;DHT22;54122;53.538;49.366;2023-04-24T12:50:37;22.70;21.80
67196;DHT22;54122;53.538;49.366;2023-04-24T12:53:22;22.70;21.70
67196;DHT22;54122;53.538;49.366;2023-04-24T12:55:48;22.50;21.80
67196;DHT22;54122;53.538;49.366;2023-04-24T12:58:19;22.40;22.00
67196;DHT22;54122;53.538;49.366;2023-04-24T13:00:47;22.30;22.00
67196;DHT22;54122;53.538;49.366;2023-04-24T13:03:13;22.20;22.00
67196;DHT22;54122;53.538;49.366;2023-04-24T13:05:58;22.30;22.20
67196;DHT22;54122;53.538;49.366;2023-04-24T13:08:24;22.30;22.00
67196;DHT22;54122;53.538;49.366;2023-04-24T13:10:51;22.20;22.10
67196;DHT22;54122;53.538;49.366;2023-04-24T13:13:17;22.10;21.90
67196;DHT22;54122;53.538;49.366;2023-04-24T13:15:44;22.10;22.20
67196;DHT22;54122;53.538;49.366;2023-04-24T13:18:28;22.10;22.20
67196;DHT22;54122;53.538;49.366;2023-04-24T13:21:13;22.20;22.20
67196;DHT22;54122;53.538;49.366;2023-04-24T13:23:39;22.20;22.20
67196;DHT22;54122;53.538;49.366;2023-04-24T13:28:51;22.10;23.10
67196;DHT22;54122;53.538;49.366;2023-04-24T13:31:36;22.10;22.40
67196;DHT22;54122;53.538;49.366;2023-04-24T13:34:03;22.10;22.30
67196;DHT22;54122;53.538;49.366;2023-04-24T13:36:30;22.00;22.50
67196;DHT22;54122;53.538;49.366;2023-04-24T13:38:57;22.00;22.50
67196;DHT22;54122;53.538;49.366;2023-04-24T13:41:23;21.90;22.50
67196;DHT22;54122;53.538;49.366;2023-04-24T13:43:49;21.90;22.40
67196;DHT22;54122;53.538;49.366;2023-04-24T13:46:16;21.80;22.60
67196;DHT22;54122;53.538;49.366;2023-04-24T13:48:42;21.80;22.60
67196;DHT22;54122;53.538;49.366;2023-04-24T13:51:08;21.80;22.40
67196;DHT22;54122;53.538;49.366;2023-04-24T13:53:53;21.80;22.40
67196;DHT22;54122;53.538;49.366;2023-04-24T13:56:20;21.70;22.30
67196;DHT22;54122;53.538;49.366;2023-04-24T13:59:05;21.60;22.40
67196;DHT22;54122;53.538;49.366;2023-04-24T14:01:49;21.50;22.30
67196;DHT22;54122;53.538;49.366;2023-04-24T14:04:34;21.40;22.30
67196;DHT22;54122;53.538;49.366;2023-04-24T14:07:01;21.40;22.40
67196;DHT22;54122;53.538;49.366;2023-04-24T14:09:28;21.30;22.50
67196;DHT22;54122;53.538;49.366;2023-04-24T14:11:54;21.20;22.70
67196;DHT22;54122;53.538;49.366;2023-04-24T14:14:21;21.20;22.80
67196;DHT22;54122;53.538;49.366;2023-04-24T14:16:47;21.10;22.80
67196;DHT22;54122;53.538;49.366;2023-04-24T14:19:32;21.00;22.90
67196;DHT22;54122;53.538;49.366;2023-04-24T14:21:58;20.90;23.10
67196;DHT22;54122;53.538;49.366;2023-04-24T14:24:42;20.80;23.20
67196;DHT22;54122;53.538;49.366;2023-04-24T14:27:09;20.80;23.20
67196;DHT22;54122;53.538;49.366;2023-04-24T14:29:35;20.70;23.40
67196;DHT22;54122;53.538;49.366;2023-04-24T14:32:01;20.60;23.40
67196;DHT22;54122;53.538;49.366;2023-04-24T14:34:27;20.60;23.70
67196;DHT22;54122;53.538;49.366;2023-04-24T14:36:53;20.50;23.90
67196;DHT22;54122;53.538;49.366;2023-04-24T14:39:20;20.40;24.00
67196;DHT22;54122;53.538;49.366;2023-04-24T14:41:46;20.40;24.10
67196;DHT22;54122;53.538;49.366;2023-04-24T14:44:12;20.30;24.30
67196;DHT22;54122;53.538;49.366;2023-04-24T14:46:38;20.20;24.30
67196;DHT22;54122;53.538;49.366;2023-04-24T14:51:49;20.10;24.60
67196;DHT22;54122;53.538;49.366;2023-04-24T14:54:16;20.00;24.90
67196;DHT22;54122;53.538;49.366;2023-04-24T14:56:42;20.00;25.00
67196;DHT22;54122;53.538;49.366;2023-04-24T14:59:10;19.90;25.20
67196;DHT22;54122;53.538;49.366;2023-04-24T15:01:36;19.80;25.40
67196;DHT22;54122;53.538;49.366;2023-04-24T15:04:02;19.70;25.60
67196;DHT22;54122;53.538;49.366;2023-04-24T15:06:30;19.60;25.60
67196;DHT22;54122;53.538;49.366;2023-04-24T15:08:57;19.50;25.80
67196;DHT22;54122;53.538;49.366;2023-04-24T15:11:24;19.40;26.10
67196;DHT22;54122;53.538;49.366;2023-04-24T15:13:50;19.30;26.20
67196;DHT22;54122;53.538;49.366;2023-04-24T15:16:16;19.20;26.50
67196;DHT22;54122;53.538;49.366;2023-04-24T15:18:42;19.10;26.70
67196;DHT22;54122;53.538;49.366;2023-04-24T15:23:53;18.90;27.10
67196;DHT22;54122;53.538;49.366;2023-04-24T15:26:19;18.80;27.30
67196;DHT22;54122;53.538;49.366;2023-04-24T15:28:45;18.70;27.50
67196;DHT22;54122;53.538;49.366;2023-04-24T15:31:12;18.60;27.80
67196;DHT22;54122;53.538;49.366;2023-04-24T15:33:39;18.50;28.00
67196;DHT22;54122;53.538;49.366;2023-04-24T15:39:08;18.20;28.60
67196;DHT22;54122;53.538;49.366;2023-04-24T15:41:35;18.00;29.00
67196;DHT22;54122;53.538;49.366;2023-04-24T15:44:01;17.80;29.60
67196;DHT22;54122;53.538;49.366;2023-04-24T15:46:46;17.60;30.30
67196;DHT22;54122;53.538;49.366;2023-04-24T15:49:31;17.40;31.10
67196;DHT22;54122;53.538;49.366;2023-04-24T15:51:58;17.10;31.60
67196;DHT22;54122;53.538;49.366;2023-04-24T15:54:24;16.90;32.60
67196;DHT22;54122;53.538;49.366;2023-04-24T15:59:53;16.50;33.50
67196;DHT22;54122;53.538;49.366;2023-04-24T16:02:38;16.30;33.70
67196;DHT22;54122;53.538;49.366;2023-04-24T16:05:05;16.10;34.00
67196;DHT22;54122;53.538;49.366;2023-04-24T16:13:23;15.60;35.20
67196;DHT22;54122;53.538;49.366;2023-04-24T16:15:50;15.50;35.50
67196;DHT22;54122;53.538;49.366;2023-04-24T16:18:16;15.40;35.90
67196;DHT22;54122;53.538;49.366;2023-04-24T16:20:42;15.20;36.20
67196;DHT22;54122;53.538;49.366;2023-04-24T16:23:09;15.10;36.50
67196;DHT22;54122;53.538;49.366;2023-04-24T16:25:35;15.00;38.00
67196;DHT22;54122;53.538;49.366;2023-04-24T16:28:01;14.80;37.10
67196;DHT22;54122;53.538;49.366;2023-04-24T16:30:28;14.80;37.60
67196;DHT22;54122;53.538;49.366;2023-04-24T16:32:54;14.60;37.90
67196;DHT22;54122;53.538;49.366;2023-04-24T16:35:20;14.50;38.20
67196;DHT22;54122;53.538;49.366;2023-04-24T16:37:46;14.40;38.50
67196;DHT22;54122;53.538;49.366;2023-04-24T16:40:12;14.30;38.70
67196;DHT22;54122;53.538;49.366;2023-04-24T16:42:38;14.20;38.80
67196;DHT22;54122;53.538;49.366;2023-04-24T16:45:05;14.20;39.00
67196;DHT22;54122;53.538;49.366;2023-04-24T16:50:16;14.00;39.60
67196;DHT22;54122;53.538;49.366;2023-04-24T16:52:42;13.80;41.20